createdAt,value
2018-05-14T00:00:11.162Z,0.00
2018-05-14T00:01:11.121Z,0.00
2018-05-14T00:02:11.085Z,0.00
2018-05-14T00:03:11.044Z,0.00
2018-05-14T00:04:11.006Z,0.00
2018-05-14T00:05:10.974Z,0.00
2018-05-14T00:06:10.933Z,0.00
2018-05-14T00:07:10.897Z,0.00
2018-05-14T00:08:10.859Z,0.00
2018-05-14T00:09:10.818Z,0.00
2018-05-14T00:10:10.784Z,0.00
2018-05-14T00:11:10.749Z,0.00
2018-05-14T00:12:10.719Z,0.00
2018-05-14T00:13:10.678Z,0.00
2018-05-14T00:14:10.639Z,0.00
2018-05-14T00:15:10.599Z,0.00
2018-05-14T00:16:10.558Z,0.00
2018-05-14T00:17:10.523Z,0.00
2018-05-14T00:18:10.486Z,0.00
2018-05-14T00:19:10.450Z,0.00
2018-05-14T00:20:10.455Z,0.00
2018-05-14T00:21:10.371Z,0.00
2018-05-14T00:22:10.337Z,0.00
2018-05-14T00:23:10.302Z,0.00
2018-05-14T00:24:10.267Z,0.00
2018-05-14T00:25:10.231Z,0.00
2018-05-14T00:26:10.194Z,0.00
2018-05-14T00:27:10.150Z,0.00
2018-05-14T00:28:10.110Z,0.00
2018-05-14T00:29:10.076Z,0.00
2018-05-14T00:30:10.039Z,0.00
2018-05-14T00:31:10.009Z,0.00
2018-05-14T00:32:09.968Z,0.00
2018-05-14T00:33:09.929Z,0.00
2018-05-14T00:34:09.893Z,0.00
2018-05-14T00:35:09.853Z,0.00
2018-05-14T00:36:09.811Z,0.00
2018-05-14T00:37:09.783Z,0.00
2018-05-14T00:38:10.134Z,0.00
2018-05-14T00:39:09.706Z,0.00
2018-05-14T00:40:09.662Z,0.00
2018-05-14T00:41:09.626Z,0.00
2018-05-14T00:42:09.591Z,0.00
2018-05-14T00:43:09.566Z,0.00
2018-05-14T00:44:09.519Z,0.00
2018-05-14T00:45:10.136Z,0.00
2018-05-14T00:46:09.447Z,0.00
2018-05-14T00:47:09.405Z,0.00
2018-05-14T00:48:09.364Z,0.00
2018-05-14T00:49:09.329Z,0.00
2018-05-14T00:50:09.293Z,0.00
2018-05-14T00:51:09.257Z,0.00
2018-05-14T00:52:09.229Z,0.00
2018-05-14T00:53:09.178Z,0.00
2018-05-14T00:54:09.149Z,0.00
2018-05-14T00:55:09.109Z,0.00
2018-05-14T00:56:09.072Z,0.00
2018-05-14T00:57:09.035Z,0.00
2018-05-14T00:58:08.995Z,0.00
2018-05-14T00:59:08.957Z,0.00
2018-05-14T01:00:08.918Z,0.00
2018-05-14T01:01:08.880Z,0.00
2018-05-14T01:02:08.844Z,0.00
2018-05-14T01:03:08.809Z,0.00
2018-05-14T01:04:08.772Z,0.00
2018-05-14T01:05:08.734Z,0.00
2018-05-14T01:06:08.698Z,0.00
2018-05-14T01:07:08.661Z,0.00
2018-05-14T01:08:08.618Z,0.00
2018-05-14T01:09:08.591Z,0.00
2018-05-14T01:10:08.547Z,0.00
2018-05-14T01:11:08.511Z,0.00
2018-05-14T01:12:08.477Z,0.00
2018-05-14T01:13:08.430Z,0.00
2018-05-14T01:14:08.398Z,0.00
2018-05-14T01:15:08.360Z,0.00
2018-05-14T01:16:08.324Z,0.00
2018-05-14T01:17:08.287Z,0.00
2018-05-14T01:18:08.248Z,0.00
2018-05-14T01:19:08.210Z,0.00
2018-05-14T01:20:08.168Z,0.00
2018-05-14T01:21:08.130Z,0.00
2018-05-14T01:22:08.097Z,0.00
2018-05-14T01:23:08.062Z,0.00
2018-05-14T01:24:08.024Z,0.00
2018-05-14T01:25:07.985Z,0.00
2018-05-14T01:26:07.949Z,0.00
2018-05-14T01:27:07.912Z,0.00
2018-05-14T01:28:07.939Z,0.00
2018-05-14T01:29:07.838Z,0.00
2018-05-14T01:30:07.799Z,0.00
2018-05-14T01:31:07.763Z,0.00
2018-05-14T01:32:07.724Z,0.00
2018-05-14T01:33:07.683Z,0.00
2018-05-14T01:34:07.647Z,0.00
2018-05-14T01:35:07.610Z,0.00
2018-05-14T01:36:07.576Z,0.00
2018-05-14T01:37:07.539Z,0.00
2018-05-14T01:38:07.500Z,0.00
2018-05-14T01:39:07.468Z,0.00
2018-05-14T01:40:07.422Z,0.00
2018-05-14T01:41:07.388Z,0.00
2018-05-14T01:42:07.350Z,0.00
2018-05-14T01:43:07.312Z,0.00
2018-05-14T01:44:07.272Z,0.00
2018-05-14T01:45:07.232Z,0.00
2018-05-14T01:46:07.201Z,0.00
2018-05-14T01:47:07.168Z,0.00
2018-05-14T01:48:07.124Z,0.00
2018-05-14T01:49:07.087Z,0.00
2018-05-14T01:50:07.051Z,0.00
2018-05-14T01:51:07.012Z,0.00
2018-05-14T01:52:06.968Z,0.00
2018-05-14T01:53:06.935Z,0.00
2018-05-14T01:54:06.899Z,0.00
2018-05-14T01:55:06.864Z,0.00
2018-05-14T01:56:06.827Z,0.00
2018-05-14T01:57:06.785Z,0.00
2018-05-14T01:58:06.749Z,0.00
2018-05-14T01:59:06.712Z,0.00
2018-05-14T02:00:06.677Z,0.00
2018-05-14T02:01:06.640Z,0.00
2018-05-14T02:02:06.600Z,0.00
2018-05-14T02:03:06.563Z,0.00
2018-05-14T02:04:06.524Z,0.00
2018-05-14T02:05:06.485Z,0.00
2018-05-14T02:06:06.450Z,0.00
2018-05-14T02:07:06.418Z,0.00
2018-05-14T02:08:06.379Z,0.00
2018-05-14T02:09:06.343Z,0.00
2018-05-14T02:10:06.302Z,0.00
2018-05-14T02:11:06.269Z,0.00
2018-05-14T02:12:06.225Z,0.00
2018-05-14T02:13:06.265Z,0.00
2018-05-14T02:14:06.152Z,0.00
2018-05-14T02:15:06.116Z,0.00
2018-05-14T02:16:06.078Z,0.00
2018-05-14T02:17:06.039Z,0.00
2018-05-14T02:18:06.002Z,0.00
2018-05-14T02:19:06.658Z,0.00
2018-05-14T02:20:05.931Z,0.00
2018-05-14T02:21:05.892Z,0.00
2018-05-14T02:22:05.856Z,0.00
2018-05-14T02:23:05.816Z,0.00
2018-05-14T02:24:05.772Z,0.00
2018-05-14T02:25:05.741Z,0.00
2018-05-14T02:26:05.701Z,0.00
2018-05-14T02:27:05.667Z,0.00
2018-05-14T02:28:05.630Z,0.00
2018-05-14T02:29:05.590Z,0.00
2018-05-14T02:30:05.552Z,0.00
2018-05-14T02:31:05.518Z,0.00
2018-05-14T02:32:05.484Z,0.00
2018-05-14T02:33:05.442Z,0.00
2018-05-14T02:34:05.408Z,0.00
2018-05-14T02:35:05.366Z,0.00
2018-05-14T02:36:05.329Z,0.00
2018-05-14T02:37:05.287Z,0.00
2018-05-14T02:38:05.255Z,0.00
2018-05-14T02:39:05.222Z,0.00
2018-05-14T02:40:05.185Z,0.00
2018-05-14T02:41:05.150Z,0.00
2018-05-14T02:42:05.109Z,0.00
2018-05-14T02:43:05.070Z,0.00
2018-05-14T02:44:05.031Z,0.00
2018-05-14T02:45:04.995Z,0.00
2018-05-14T02:46:04.956Z,0.00
2018-05-14T02:47:04.924Z,0.00
2018-05-14T02:48:04.876Z,0.00
2018-05-14T02:49:04.848Z,0.00
2018-05-14T02:50:04.809Z,0.00
2018-05-14T02:51:04.779Z,0.00
2018-05-14T02:52:04.736Z,0.00
2018-05-14T02:53:04.700Z,0.00
2018-05-14T02:54:04.662Z,0.00
2018-05-14T02:55:04.621Z,0.00
2018-05-14T02:56:04.580Z,0.00
2018-05-14T02:57:04.545Z,0.00
2018-05-14T02:58:04.526Z,0.00
2018-05-14T02:59:04.475Z,0.00
2018-05-14T03:00:04.438Z,0.00
2018-05-14T03:01:04.398Z,0.00
2018-05-14T03:02:04.362Z,0.00
2018-05-14T03:03:04.331Z,0.00
2018-05-14T03:04:04.288Z,0.00
2018-05-14T03:05:04.251Z,0.00
2018-05-14T03:06:04.257Z,0.00
2018-05-14T03:07:04.174Z,0.00
2018-05-14T03:08:04.135Z,0.00
2018-05-14T03:09:04.147Z,0.00
2018-05-14T03:10:04.060Z,0.00
2018-05-14T03:11:04.030Z,0.00
2018-05-14T03:12:03.987Z,0.00
2018-05-14T03:13:03.949Z,0.00
2018-05-14T03:14:03.914Z,0.00
2018-05-14T03:15:03.871Z,0.00
2018-05-14T03:16:03.835Z,0.00
2018-05-14T03:17:03.806Z,0.00
2018-05-14T03:18:03.764Z,0.00
2018-05-14T03:19:03.723Z,0.00
2018-05-14T03:20:03.685Z,0.00
2018-05-14T03:21:03.649Z,0.00
2018-05-14T03:22:03.616Z,0.00
2018-05-14T03:23:03.582Z,0.00
2018-05-14T03:24:03.543Z,0.00
2018-05-14T03:25:03.508Z,0.00
2018-05-14T03:26:03.468Z,0.00
2018-05-14T03:27:03.426Z,0.00
2018-05-14T03:28:03.389Z,0.00
2018-05-14T03:29:03.352Z,0.00
2018-05-14T03:30:03.313Z,0.00
2018-05-14T03:31:03.280Z,0.00
2018-05-14T03:32:03.242Z,0.00
2018-05-14T03:33:03.201Z,0.00
2018-05-14T03:34:03.161Z,0.00
2018-05-14T03:35:03.133Z,0.00
2018-05-14T03:36:03.091Z,0.00
2018-05-14T03:37:03.071Z,0.00
2018-05-14T03:38:03.018Z,0.00
2018-05-14T03:39:02.976Z,0.00
2018-05-14T03:40:02.938Z,0.00
2018-05-14T03:41:02.901Z,0.00
2018-05-14T03:42:02.864Z,0.00
2018-05-14T03:43:02.831Z,0.00
2018-05-14T03:44:02.791Z,0.00
2018-05-14T03:45:02.758Z,0.00
2018-05-14T03:46:02.720Z,0.00
2018-05-14T03:47:02.678Z,0.00
2018-05-14T03:48:02.640Z,0.00
2018-05-14T03:49:02.605Z,0.00
2018-05-14T03:50:02.572Z,0.00
2018-05-14T03:51:02.527Z,0.00
2018-05-14T03:52:02.491Z,0.00
2018-05-14T03:53:02.454Z,0.00
2018-05-14T03:54:02.417Z,0.00
2018-05-14T03:55:02.388Z,0.00
2018-05-14T03:56:02.342Z,0.00
2018-05-14T03:57:02.306Z,0.00
2018-05-14T03:58:02.270Z,0.00
2018-05-14T03:59:02.228Z,0.00
2018-05-14T04:00:02.192Z,0.00
2018-05-14T04:01:02.160Z,0.00
2018-05-14T04:02:02.114Z,0.00
2018-05-14T04:03:02.085Z,0.00
2018-05-14T04:04:02.046Z,0.00
2018-05-14T04:05:02.005Z,0.00
2018-05-14T04:06:01.965Z,0.00
2018-05-14T04:07:01.937Z,0.00
2018-05-14T04:08:01.893Z,0.00
2018-05-14T04:09:01.857Z,0.00
2018-05-14T04:10:01.819Z,0.00
2018-05-14T04:11:01.778Z,0.00
2018-05-14T04:12:01.745Z,0.00
2018-05-14T04:13:01.704Z,0.00
2018-05-14T04:14:01.661Z,0.00
2018-05-14T04:15:01.642Z,0.00
2018-05-14T04:16:01.594Z,0.00
2018-05-14T04:17:01.559Z,0.00
2018-05-14T04:18:01.522Z,0.00
2018-05-14T04:19:01.482Z,0.00
2018-05-14T04:20:01.443Z,0.00
2018-05-14T04:21:01.406Z,0.00
2018-05-14T04:22:01.375Z,0.00
2018-05-14T04:23:01.329Z,0.00
2018-05-14T04:24:01.293Z,0.00
2018-05-14T04:25:01.258Z,0.00
2018-05-14T04:26:01.216Z,0.00
2018-05-14T04:27:01.185Z,0.00
2018-05-14T04:28:01.144Z,0.00
2018-05-14T04:29:01.108Z,0.00
2018-05-14T04:30:01.074Z,0.00
2018-05-14T04:31:01.036Z,0.00
2018-05-14T04:32:00.989Z,0.00
2018-05-14T04:33:00.956Z,0.00
2018-05-14T04:34:00.919Z,0.00
2018-05-14T04:35:00.890Z,0.00
2018-05-14T04:36:00.851Z,0.00
2018-05-14T04:37:00.807Z,0.00
2018-05-14T04:38:00.769Z,0.00
2018-05-14T04:39:00.737Z,0.00
2018-05-14T04:40:00.697Z,0.00
2018-05-14T04:41:00.658Z,0.00
2018-05-14T04:42:00.635Z,0.00
2018-05-14T04:43:00.594Z,0.00
2018-05-14T04:44:00.550Z,0.00
2018-05-14T04:45:00.511Z,0.00
2018-05-14T04:46:00.467Z,0.00
2018-05-14T04:47:00.440Z,0.00
2018-05-14T04:48:00.398Z,0.00
2018-05-14T04:49:00.362Z,0.00
2018-05-14T04:50:00.324Z,0.00
2018-05-14T04:51:00.283Z,0.00
2018-05-14T04:52:00.248Z,0.00
2018-05-14T04:53:00.218Z,0.00
2018-05-14T04:54:00.180Z,0.00
2018-05-14T04:55:00.135Z,0.00
2018-05-14T04:56:00.102Z,0.00
2018-05-14T04:57:00.061Z,0.00
2018-05-14T04:58:00.023Z,0.00
2018-05-14T04:58:59.989Z,0.00
2018-05-14T04:59:59.949Z,0.00
2018-05-14T05:00:59.912Z,0.00
2018-05-14T05:01:59.876Z,0.00
2018-05-14T05:02:59.833Z,0.00
2018-05-14T05:03:59.812Z,0.00
2018-05-14T05:04:59.830Z,0.00
2018-05-14T05:05:59.720Z,0.00
2018-05-14T05:06:59.689Z,0.00
2018-05-14T05:07:59.650Z,0.00
2018-05-14T05:08:59.610Z,0.00
2018-05-14T05:09:59.577Z,0.00
2018-05-14T05:10:59.538Z,0.00
2018-05-14T05:11:59.501Z,0.00
2018-05-14T05:12:59.464Z,0.00
2018-05-14T05:13:59.427Z,0.00
2018-05-14T05:14:59.382Z,0.00
2018-05-14T05:16:00.200Z,0.00
2018-05-14T05:16:59.317Z,0.00
2018-05-14T05:17:59.273Z,0.00
2018-05-14T05:18:59.241Z,0.00
2018-05-14T05:19:59.205Z,0.00
2018-05-14T05:20:59.165Z,0.00
2018-05-14T05:21:59.129Z,0.00
2018-05-14T05:22:59.092Z,0.00
2018-05-14T05:23:59.052Z,0.00
2018-05-14T05:24:59.017Z,0.00
2018-05-14T05:25:58.979Z,0.00
2018-05-14T05:26:58.937Z,0.00
2018-05-14T05:27:58.902Z,0.00
2018-05-14T05:28:58.867Z,0.00
2018-05-14T05:29:58.829Z,0.00
2018-05-14T05:30:58.796Z,0.00
2018-05-14T05:31:58.755Z,0.00
2018-05-14T05:32:58.716Z,0.00
2018-05-14T05:33:58.683Z,0.00
2018-05-14T05:34:58.640Z,0.00
2018-05-14T05:35:58.603Z,0.00
2018-05-14T05:36:58.564Z,0.00
2018-05-14T05:37:58.565Z,0.00
2018-05-14T05:38:58.497Z,0.00
2018-05-14T05:39:58.456Z,0.00
2018-05-14T05:40:58.421Z,0.00
2018-05-14T05:41:59.206Z,0.00
2018-05-14T05:42:58.345Z,0.00
2018-05-14T05:43:58.306Z,0.38
2018-05-14T05:44:58.275Z,0.00
2018-05-14T05:45:58.242Z,0.09
2018-05-14T05:46:58.195Z,0.67
2018-05-14T05:47:58.154Z,0.67
2018-05-14T05:48:58.119Z,1.04
2018-05-14T05:49:58.082Z,1.04
2018-05-14T05:50:58.047Z,1.04
2018-05-14T05:51:58.015Z,1.43
2018-05-14T05:52:57.979Z,1.72
2018-05-14T05:53:57.934Z,1.53
2018-05-14T05:54:57.891Z,2.00
2018-05-14T05:55:57.858Z,2.29
2018-05-14T05:56:57.822Z,2.29
2018-05-14T05:57:57.790Z,2.29
2018-05-14T05:58:57.747Z,2.86
2018-05-14T05:59:57.708Z,2.76
2018-05-14T06:00:58.212Z,2.86
2018-05-14T06:01:57.629Z,3.05
2018-05-14T06:02:57.600Z,3.24
2018-05-14T06:03:57.561Z,3.53
2018-05-14T06:04:57.525Z,3.43
2018-05-14T06:05:57.491Z,3.43
2018-05-14T06:06:57.452Z,3.72
2018-05-14T06:07:57.411Z,3.81
2018-05-14T06:08:57.373Z,3.81
2018-05-14T06:09:57.336Z,4.10
2018-05-14T06:10:57.306Z,4.29
2018-05-14T06:11:57.263Z,4.48
2018-05-14T06:12:57.224Z,4.67
2018-05-14T06:13:57.184Z,4.48
2018-05-14T06:14:57.152Z,4.96
2018-05-14T06:15:57.117Z,5.24
2018-05-14T06:16:57.082Z,5.15
2018-05-14T06:17:57.043Z,5.34
2018-05-14T06:18:57.000Z,5.62
2018-05-14T06:19:56.964Z,5.62
2018-05-14T06:20:56.923Z,5.91
2018-05-14T06:21:56.885Z,5.91
2018-05-14T06:22:56.855Z,6.10
2018-05-14T06:23:56.823Z,6.01
2018-05-14T06:24:56.782Z,6.29
2018-05-14T06:25:56.743Z,6.58
2018-05-14T06:26:56.700Z,6.67
2018-05-14T06:27:56.668Z,6.96
2018-05-14T06:28:57.219Z,7.15
2018-05-14T06:29:56.600Z,7.63
2018-05-14T06:30:56.556Z,7.53
2018-05-14T06:31:56.518Z,7.34
2018-05-14T06:32:56.478Z,7.72
2018-05-14T06:33:56.444Z,7.72
2018-05-14T06:34:56.410Z,7.63
2018-05-14T06:35:56.373Z,8.29
2018-05-14T06:36:56.332Z,8.11
2018-05-14T06:37:56.300Z,8.39
2018-05-14T06:38:56.259Z,8.48
2018-05-14T06:39:56.220Z,8.58
2018-05-14T06:40:56.186Z,8.48
2018-05-14T06:41:56.145Z,8.67
2018-05-14T06:42:56.113Z,9.06
2018-05-14T06:43:56.078Z,8.96
2018-05-14T06:44:56.036Z,9.16
2018-05-14T06:45:55.999Z,9.16
2018-05-14T06:46:55.987Z,9.63
2018-05-14T06:47:55.927Z,9.82
2018-05-14T06:48:55.890Z,9.92
2018-05-14T06:49:55.869Z,9.82
2018-05-14T06:50:55.811Z,10.02
2018-05-14T06:51:55.774Z,10.39
2018-05-14T06:52:55.738Z,10.58
2018-05-14T06:53:55.701Z,10.49
2018-05-14T06:54:55.668Z,10.58
2018-05-14T06:55:55.629Z,10.49
2018-05-14T06:56:55.599Z,10.30
2018-05-14T06:57:55.557Z,10.39
2018-05-14T06:58:55.516Z,9.63
2018-05-14T06:59:55.481Z,9.92
2018-05-14T07:00:55.449Z,9.83
2018-05-14T07:01:55.411Z,9.83
2018-05-14T07:02:55.367Z,9.92
2018-05-14T07:03:55.333Z,10.49
2018-05-14T07:04:55.296Z,10.59
2018-05-14T07:05:55.261Z,10.78
2018-05-14T07:06:55.228Z,10.88
2018-05-14T07:07:55.187Z,11.16
2018-05-14T07:08:55.151Z,10.88
2018-05-14T07:09:55.115Z,11.44
2018-05-14T07:10:55.073Z,11.44
2018-05-14T07:11:55.038Z,11.35
2018-05-14T07:12:55.003Z,11.93
2018-05-14T07:13:54.964Z,11.83
2018-05-14T07:14:54.932Z,11.73
2018-05-14T07:15:54.894Z,12.12
2018-05-14T07:16:54.854Z,12.49
2018-05-14T07:17:54.821Z,12.40
2018-05-14T07:18:54.786Z,12.59
2018-05-14T07:19:54.872Z,12.69
2018-05-14T07:20:54.709Z,12.69
2018-05-14T07:21:54.674Z,12.69
2018-05-14T07:22:54.633Z,12.69
2018-05-14T07:23:54.602Z,12.69
2018-05-14T07:24:54.560Z,12.78
2018-05-14T07:25:54.524Z,12.78
2018-05-14T07:26:54.500Z,12.88
2018-05-14T07:27:54.452Z,13.07
2018-05-14T07:28:54.417Z,12.88
2018-05-14T07:29:54.378Z,13.26
2018-05-14T07:30:54.347Z,12.98
2018-05-14T07:31:54.304Z,13.35
2018-05-14T07:32:54.269Z,13.64
2018-05-14T07:33:54.235Z,13.45
2018-05-14T07:34:54.193Z,13.74
2018-05-14T07:35:54.155Z,13.83
2018-05-14T07:36:54.117Z,13.74
2018-05-14T07:37:54.082Z,13.83
2018-05-14T07:38:54.051Z,13.64
2018-05-14T07:39:54.016Z,13.93
2018-05-14T07:40:53.978Z,14.03
2018-05-14T07:41:53.940Z,14.03
2018-05-14T07:42:53.907Z,14.12
2018-05-14T07:43:53.862Z,13.83
2018-05-14T07:44:53.825Z,14.22
2018-05-14T07:45:53.795Z,14.61
2018-05-14T07:46:53.756Z,14.50
2018-05-14T07:47:53.723Z,14.50
2018-05-14T07:48:53.680Z,14.88
2018-05-14T07:49:54.238Z,14.69
2018-05-14T07:50:53.610Z,15.07
2018-05-14T07:51:53.576Z,15.26
2018-05-14T07:52:54.240Z,15.27
2018-05-14T07:53:53.502Z,15.64
2018-05-14T07:54:53.464Z,15.55
2018-05-14T07:55:53.427Z,16.03
2018-05-14T07:56:53.384Z,15.66
2018-05-14T07:57:53.355Z,14.32
2018-05-14T07:58:53.318Z,14.32
2018-05-14T07:59:53.282Z,14.51
2018-05-14T08:00:53.745Z,14.12
2018-05-14T08:01:53.218Z,14.12
2018-05-14T08:02:53.171Z,14.51
2018-05-14T08:03:53.133Z,14.51
2018-05-14T08:04:53.099Z,14.41
2018-05-14T08:05:53.137Z,14.22
2018-05-14T08:06:53.024Z,14.70
2018-05-14T08:07:52.985Z,14.79
2018-05-14T08:08:52.948Z,14.79
2018-05-14T08:09:52.914Z,14.98
2018-05-14T08:10:52.879Z,15.27
2018-05-14T08:11:52.846Z,15.08
2018-05-14T08:12:52.810Z,15.66
2018-05-14T08:13:52.769Z,15.46
2018-05-14T08:14:52.736Z,15.46
2018-05-14T08:15:52.693Z,15.56
2018-05-14T08:16:52.660Z,15.46
2018-05-14T08:17:52.622Z,15.46
2018-05-14T08:18:52.590Z,15.46
2018-05-14T08:19:52.555Z,15.56
2018-05-14T08:20:52.510Z,15.46
2018-05-14T08:21:52.487Z,15.46
2018-05-14T08:22:52.449Z,15.46
2018-05-14T08:23:52.408Z,15.56
2018-05-14T08:24:52.372Z,15.66
2018-05-14T08:25:52.337Z,15.66
2018-05-14T08:26:52.298Z,15.46
2018-05-14T08:27:52.257Z,15.37
2018-05-14T08:28:52.218Z,15.56
2018-05-14T08:29:52.192Z,15.66
2018-05-14T08:30:52.152Z,15.75
2018-05-14T08:31:52.120Z,15.17
2018-05-14T08:32:52.081Z,15.08
2018-05-14T08:33:52.044Z,14.32
2018-05-14T08:34:52.021Z,14.41
2018-05-14T08:35:51.970Z,13.85
2018-05-14T08:36:51.937Z,13.65
2018-05-14T08:37:51.900Z,13.75
2018-05-14T08:38:51.868Z,13.46
2018-05-14T08:39:51.821Z,13.36
2018-05-14T08:40:51.789Z,13.27
2018-05-14T08:41:51.756Z,13.17
2018-05-14T08:42:51.718Z,13.36
2018-05-14T08:43:51.684Z,13.36
2018-05-14T08:44:51.654Z,13.65
2018-05-14T08:45:51.611Z,13.93
2018-05-14T08:46:51.577Z,14.12
2018-05-14T08:47:51.615Z,14.42
2018-05-14T08:48:51.497Z,14.51
2018-05-14T08:49:51.463Z,14.22
2018-05-14T08:50:51.431Z,15.09
2018-05-14T08:51:51.398Z,15.28
2018-05-14T08:52:51.356Z,15.28
2018-05-14T08:53:51.319Z,15.47
2018-05-14T08:54:51.286Z,15.37
2018-05-14T08:55:51.250Z,16.14
2018-05-14T08:56:51.218Z,15.95
2018-05-14T08:57:51.178Z,16.04
2018-05-14T08:58:51.142Z,16.42
2018-05-14T08:59:51.100Z,16.14
2018-05-14T09:00:51.111Z,16.33
2018-05-14T09:01:51.035Z,16.24
2018-05-14T09:02:51.001Z,16.24
2018-05-14T09:03:50.961Z,16.52
2018-05-14T09:04:50.927Z,16.52
2018-05-14T09:05:50.891Z,16.81
2018-05-14T09:06:50.853Z,17.10
2018-05-14T09:07:50.816Z,17.00
2018-05-14T09:08:50.780Z,16.90
2018-05-14T09:09:50.746Z,17.10
2018-05-14T09:10:50.710Z,17.19
2018-05-14T09:11:50.666Z,17.19
2018-05-14T09:12:50.631Z,17.19
2018-05-14T09:13:50.602Z,17.29
2018-05-14T09:14:50.566Z,17.76
2018-05-14T09:15:50.529Z,17.57
2018-05-14T09:16:50.501Z,17.57
2018-05-14T09:17:50.461Z,17.38
2018-05-14T09:18:50.420Z,17.57
2018-05-14T09:19:50.383Z,17.76
2018-05-14T09:20:50.347Z,18.05
2018-05-14T09:21:50.311Z,17.66
2018-05-14T09:22:50.281Z,17.76
2018-05-14T09:23:50.764Z,18.05
2018-05-14T09:24:50.201Z,18.05
2018-05-14T09:25:50.176Z,18.05
2018-05-14T09:26:50.132Z,17.77
2018-05-14T09:27:50.098Z,18.06
2018-05-14T09:28:50.072Z,17.96
2018-05-14T09:29:50.025Z,18.06
2018-05-14T09:30:49.989Z,17.86
2018-05-14T09:31:49.948Z,17.77
2018-05-14T09:32:49.915Z,17.86
2018-05-14T09:33:49.885Z,18.15
2018-05-14T09:34:49.849Z,18.33
2018-05-14T09:35:49.814Z,18.43
2018-05-14T09:36:49.781Z,18.54
2018-05-14T09:37:49.743Z,18.62
2018-05-14T09:38:49.707Z,18.63
2018-05-14T09:39:49.672Z,18.81
2018-05-14T09:40:49.644Z,18.63
2018-05-14T09:41:49.603Z,18.82
2018-05-14T09:42:49.573Z,19.01
2018-05-14T09:43:49.524Z,19.01
2018-05-14T09:44:49.485Z,19.20
2018-05-14T09:45:49.454Z,19.11
2018-05-14T09:46:49.422Z,19.20
2018-05-14T09:47:49.387Z,19.30
2018-05-14T09:48:49.349Z,19.20
2018-05-14T09:49:50.163Z,19.20
2018-05-14T09:50:49.276Z,19.20
2018-05-14T09:51:49.358Z,19.20
2018-05-14T09:52:49.339Z,19.20
2018-05-14T09:53:49.171Z,19.40
2018-05-14T09:54:49.137Z,19.40
2018-05-14T09:55:49.775Z,19.11
2018-05-14T09:56:49.066Z,19.20
2018-05-14T09:57:49.029Z,19.49
2018-05-14T09:58:48.996Z,19.40
2018-05-14T09:59:48.959Z,19.01
2018-05-14T10:00:48.927Z,19.01
2018-05-14T10:01:48.889Z,19.20
2018-05-14T10:02:48.850Z,19.20
2018-05-14T10:03:48.815Z,19.11
2018-05-14T10:04:48.777Z,19.01
2018-05-14T10:05:48.751Z,19.30
2018-05-14T10:06:48.723Z,19.59
2018-05-14T10:07:48.676Z,19.40
2018-05-14T10:08:48.641Z,19.40
2018-05-14T10:09:48.607Z,19.40
2018-05-14T10:10:48.572Z,19.30
2018-05-14T10:11:49.278Z,19.40
2018-05-14T10:12:48.501Z,19.68
2018-05-14T10:13:48.463Z,20.07
2018-05-14T10:14:48.431Z,20.06
2018-05-14T10:15:48.391Z,20.26
2018-05-14T10:16:48.353Z,20.36
2018-05-14T10:17:49.278Z,20.46
2018-05-14T10:18:48.350Z,20.36
2018-05-14T10:19:48.258Z,20.36
2018-05-14T10:20:48.218Z,20.46
2018-05-14T10:21:48.182Z,20.36
2018-05-14T10:22:48.149Z,20.65
2018-05-14T10:23:48.108Z,20.36
2018-05-14T10:24:48.069Z,20.55
2018-05-14T10:25:48.044Z,20.84
2018-05-14T10:26:48.009Z,20.65
2018-05-14T10:27:47.975Z,20.46
2018-05-14T10:28:47.930Z,20.94
2018-05-14T10:29:47.896Z,21.22
2018-05-14T10:30:47.866Z,21.51
2018-05-14T10:31:47.832Z,21.32
2018-05-14T10:32:47.795Z,21.80
2018-05-14T10:33:47.763Z,21.80
2018-05-14T10:34:47.724Z,22.37
2018-05-14T10:35:48.283Z,22.47
2018-05-14T10:36:47.651Z,22.27
2018-05-14T10:37:47.618Z,22.38
2018-05-14T10:38:47.586Z,22.67
2018-05-14T10:39:47.552Z,23.33
2018-05-14T10:40:47.601Z,24.29
2018-05-14T10:41:47.488Z,24.77
2018-05-14T10:42:47.443Z,25.06
2018-05-14T10:43:47.408Z,25.15
2018-05-14T10:44:47.380Z,26.01
2018-05-14T10:45:47.344Z,26.59
2018-05-14T10:46:47.359Z,27.36
2018-05-14T10:47:47.268Z,27.75
2018-05-14T10:48:47.230Z,28.31
2018-05-14T10:49:47.250Z,29.17
2018-05-14T10:50:47.169Z,29.65
2018-05-14T10:51:47.137Z,29.95
2018-05-14T10:52:47.138Z,30.43
2018-05-14T10:53:47.791Z,30.72
2018-05-14T10:54:47.030Z,31.48
2018-05-14T10:55:46.992Z,31.48
2018-05-14T10:56:46.959Z,31.77
2018-05-14T10:57:46.930Z,31.96
2018-05-14T10:58:46.922Z,32.92
2018-05-14T10:59:46.860Z,33.20
2018-05-14T11:00:46.825Z,33.69
2018-05-14T11:01:47.287Z,34.36
2018-05-14T11:02:46.760Z,35.88
2018-05-14T11:03:46.725Z,36.65
2018-05-14T11:04:46.691Z,37.04
2018-05-14T11:05:46.657Z,37.99
2018-05-14T11:06:46.620Z,38.39
2018-05-14T11:07:46.581Z,38.68
2018-05-14T11:08:46.550Z,38.96
2018-05-14T11:09:46.517Z,39.45
2018-05-14T11:10:46.488Z,40.50
2018-05-14T11:11:46.456Z,40.88
2018-05-14T11:12:46.417Z,42.22
2018-05-14T11:13:46.384Z,42.60
2018-05-14T11:14:46.348Z,43.66
2018-05-14T11:15:46.310Z,43.85
2018-05-14T11:16:46.287Z,44.71
2018-05-14T11:17:46.246Z,45.57
2018-05-14T11:18:46.307Z,46.25
2018-05-14T11:19:46.176Z,46.62
2018-05-14T11:20:46.141Z,47.30
2018-05-14T11:21:46.113Z,48.07
2018-05-14T11:22:46.080Z,48.83
2018-05-14T11:23:46.045Z,49.69
2018-05-14T11:24:46.014Z,49.31
2018-05-14T11:25:45.978Z,50.26
2018-05-14T11:26:45.939Z,51.61
2018-05-14T11:27:45.929Z,52.01
2018-05-14T11:28:45.869Z,52.59
2018-05-14T11:29:45.837Z,54.12
2018-05-14T11:30:45.811Z,55.08
2018-05-14T11:31:45.774Z,55.36
2018-05-14T11:32:45.738Z,55.97
2018-05-14T11:33:45.705Z,55.68
2018-05-14T11:34:45.673Z,56.07
2018-05-14T11:35:45.642Z,56.35
2018-05-14T11:36:45.610Z,57.98
2018-05-14T11:37:45.576Z,58.65
2018-05-14T11:38:45.536Z,58.27
2018-05-14T11:39:45.500Z,58.24
2018-05-14T11:40:45.474Z,57.76
2018-05-14T11:41:45.802Z,57.38
2018-05-14T11:42:45.417Z,57.57
2018-05-14T11:43:45.377Z,57.76
2018-05-14T11:44:45.338Z,56.93
2018-05-14T11:45:45.307Z,56.74
2018-05-14T11:46:45.265Z,56.74
2018-05-14T11:47:45.235Z,56.54
2018-05-14T11:48:45.202Z,56.07
2018-05-14T11:49:45.806Z,55.58
2018-05-14T11:50:45.150Z,55.68
2018-05-14T11:51:45.104Z,55.58
2018-05-14T11:52:45.068Z,55.30
2018-05-14T11:53:45.033Z,55.87
2018-05-14T11:54:45.005Z,55.58
2018-05-14T11:55:44.970Z,55.97
2018-05-14T11:56:45.872Z,55.11
2018-05-14T11:57:44.936Z,55.30
2018-05-14T11:58:44.865Z,54.53
2018-05-14T11:59:44.864Z,54.82
2018-05-14T12:00:44.801Z,54.82
2018-05-14T12:01:44.766Z,53.86
2018-05-14T12:02:44.745Z,53.77
2018-05-14T12:03:44.703Z,53.77
2018-05-14T12:04:44.667Z,53.48
2018-05-14T12:05:44.644Z,52.91
2018-05-14T12:06:44.611Z,52.71
2018-05-14T12:07:44.570Z,53.00
2018-05-14T12:08:44.538Z,52.04
2018-05-14T12:09:44.526Z,52.71
2018-05-14T12:10:44.466Z,52.23
2018-05-14T12:11:44.434Z,51.85
2018-05-14T12:12:45.204Z,51.56
2018-05-14T12:13:44.370Z,51.95
2018-05-14T12:14:44.337Z,51.46
2018-05-14T12:15:44.335Z,50.89
2018-05-14T12:16:44.293Z,50.79
2018-05-14T12:17:44.246Z,50.60
2018-05-14T12:18:44.201Z,50.70
2018-05-14T12:19:44.175Z,49.93
2018-05-14T12:20:44.138Z,50.12
2018-05-14T12:21:44.105Z,49.74
2018-05-14T12:22:44.070Z,49.45
2018-05-14T12:23:44.061Z,49.36
2018-05-14T12:24:44.314Z,49.45
2018-05-14T12:25:44.041Z,48.90
2018-05-14T12:26:43.941Z,48.23
2018-05-14T12:27:43.904Z,48.13
2018-05-14T12:28:43.873Z,48.13
2018-05-14T12:29:43.852Z,48.33
2018-05-14T12:30:43.802Z,47.85
2018-05-14T12:31:43.773Z,47.66
2018-05-14T12:32:43.737Z,47.08
2018-05-14T12:33:43.702Z,47.37
2018-05-14T12:34:43.697Z,46.41
2018-05-14T12:35:43.643Z,46.50
2018-05-14T12:36:43.607Z,45.93
2018-05-14T12:37:43.570Z,45.45
2018-05-14T12:38:43.547Z,45.45
2018-05-14T12:39:43.508Z,45.26
2018-05-14T12:40:43.478Z,44.40
2018-05-14T12:41:43.450Z,44.87
2018-05-14T12:42:43.407Z,44.11
2018-05-14T12:43:43.395Z,43.91
2018-05-14T12:44:43.341Z,43.82
2018-05-14T12:45:43.305Z,43.24
2018-05-14T12:46:43.279Z,43.44
2018-05-14T12:47:43.248Z,42.96
2018-05-14T12:48:43.211Z,42.77
2018-05-14T12:49:43.186Z,42.19
2018-05-14T12:50:43.144Z,42.00
2018-05-14T12:51:43.114Z,42.10
2018-05-14T12:52:43.081Z,41.71
2018-05-14T12:53:43.056Z,41.33
2018-05-14T12:54:43.053Z,41.42
2018-05-14T12:55:42.987Z,41.25
2018-05-14T12:56:42.955Z,41.33
2018-05-14T12:57:42.909Z,40.56
2018-05-14T12:58:43.325Z,40.58
2018-05-14T12:59:42.879Z,39.91
2018-05-14T13:00:42.813Z,39.91
2018-05-14T13:01:42.785Z,40.10
2018-05-14T13:02:42.748Z,39.89
2018-05-14T13:03:42.718Z,39.72
2018-05-14T13:04:42.695Z,39.03
2018-05-14T13:05:42.648Z,38.37